AAL135 EGLL-KLAX
Flight info
| Callsign | AAL135 |
|---|---|
| Flight time | N/A |
| Altitude | 36000 |
| Route | CPT L9 DIDZA N14 OKTAD DCT MEDOG DCT KRAGY DCT PEMOB DCT VATRY DCT GURGA DCT REVNU DCT RUXIN DCT AGORI/M083F360 DCT 61N020W 64N030W 65N040W 66N050W DCT IKNOG/N0474F380 DCT 65N070W 64N080W 61N090W 56N100W DCT NILTT/N0476F400 DCT GGW DCT BIL DCT HOWWY DCT INGYS DCT FFU DCT BLD DCT HAKMN ANJLL4 |
| Aircraft | B772/H-SDE1E3FGHIJ3J5M1P2RWXYZ/LB1D1 |
Departure
| Time | 2026-05-06 10:31 |
|---|---|
| Airport | London Heathrow Airport (EGLL) |
Arrival
| Time | N/A |
|---|---|
| Airport | Los Angeles International Airport (KLAX) |
| Time | Latitude | Longitude | Altitude | Speed | Heading |
|---|---|---|---|---|---|
| 2026-05-06 10:02 | 51.47431 | -0.46509 | 90 ft | 0 kts | 165° |
| 2026-05-06 10:18 | 51.47438 | -0.46512 | 94 ft | 4 kts | 166° |
| 2026-05-06 10:18 | 51.47464 | -0.46520 | 90 ft | 4 kts | 177° |
| 2026-05-06 10:18 | 51.47491 | -0.46518 | 91 ft | 4 kts | 197° |
| 2026-05-06 10:19 | 51.47511 | -0.46499 | 94 ft | 4 kts | 243° |
| 2026-05-06 10:19 | 51.47515 | -0.46479 | 92 ft | 1 kts | 270° |
| 2026-05-06 10:19 | 51.47515 | -0.46476 | 92 ft | 0 kts | 270° |
| 2026-05-06 10:22 | 51.47515 | -0.46505 | 92 ft | 6 kts | 270° |
| 2026-05-06 10:22 | 51.47515 | -0.46596 | 90 ft | 10 kts | 270° |
| 2026-05-06 10:23 | 51.47511 | -0.46705 | 92 ft | 10 kts | 258° |
| 2026-05-06 10:23 | 51.47496 | -0.46811 | 94 ft | 10 kts | 266° |
| 2026-05-06 10:23 | 51.47462 | -0.46892 | 93 ft | 10 kts | 194° |
| 2026-05-06 10:23 | 51.47385 | -0.46873 | 94 ft | 15 kts | 172° |
| 2026-05-06 10:24 | 51.47257 | -0.46866 | 90 ft | 19 kts | 180° |
| 2026-05-06 10:24 | 51.47122 | -0.46865 | 90 ft | 19 kts | 179° |
| 2026-05-06 10:24 | 51.46990 | -0.46863 | 90 ft | 18 kts | 179° |
| 2026-05-06 10:24 | 51.46862 | -0.46862 | 93 ft | 18 kts | 179° |
| 2026-05-06 10:25 | 51.46767 | -0.46871 | 94 ft | 10 kts | 209° |
| 2026-05-06 10:25 | 51.46747 | -0.46988 | 94 ft | 14 kts | 268° |
| 2026-05-06 10:25 | 51.46746 | -0.47191 | 94 ft | 20 kts | 269° |
| 2026-05-06 10:25 | 51.46746 | -0.47412 | 94 ft | 20 kts | 270° |
| 2026-05-06 10:26 | 51.46745 | -0.47634 | 93 ft | 20 kts | 269° |
| 2026-05-06 10:26 | 51.46744 | -0.47856 | 90 ft | 20 kts | 270° |
| 2026-05-06 10:26 | 51.46744 | -0.48037 | 90 ft | 5 kts | 269° |
| 2026-05-06 10:26 | 51.46744 | -0.48075 | 90 ft | 3 kts | 269° |
| 2026-05-06 10:27 | 51.46743 | -0.48128 | 90 ft | 9 kts | 269° |
| 2026-05-06 10:27 | 51.46743 | -0.48276 | 91 ft | 16 kts | 270° |
| 2026-05-06 10:27 | 51.46743 | -0.48455 | 90 ft | 16 kts | 269° |
| 2026-05-06 10:27 | 51.46742 | -0.48631 | 90 ft | 13 kts | 270° |
| 2026-05-06 10:28 | 51.46727 | -0.48731 | 95 ft | 9 kts | 222° |
| 2026-05-06 10:28 | 51.46669 | -0.48748 | 93 ft | 8 kts | 183° |
| 2026-05-06 10:28 | 51.46619 | -0.48760 | 94 ft | 6 kts | 194° |
| 2026-05-06 10:28 | 51.46615 | -0.48762 | 94 ft | 0 kts | 196° |
| 2026-05-06 10:29 | 51.46595 | -0.48771 | 94 ft | 7 kts | 196° |
| 2026-05-06 10:29 | 51.46530 | -0.48781 | 95 ft | 10 kts | 169° |
| 2026-05-06 10:29 | 51.46481 | -0.48716 | 95 ft | 6 kts | 113° |
| 2026-05-06 10:30 | 51.46479 | -0.48579 | 90 ft | 26 kts | 90° |
| 2026-05-06 10:30 | 51.46481 | -0.47913 | 91 ft | 94 kts | 90° |
| 2026-05-06 10:30 | 51.46486 | -0.46515 | 96 ft | 155 kts | 89° |
| 2026-05-06 10:30 | 51.46460 | -0.44605 | 402 ft | 175 kts | 89° |
| 2026-05-06 10:31 | 51.46431 | -0.42604 | 1080 ft | 183 kts | 87° |
| 2026-05-06 10:31 | 51.46168 | -0.40626 | 1776 ft | 195 kts | 117° |
| 2026-05-06 10:31 | 51.45151 | -0.39161 | 2216 ft | 204 kts | 157° |
| 2026-05-06 10:31 | 51.43722 | -0.38981 | 2469 ft | 212 kts | 196° |
| 2026-05-06 10:32 | 51.42460 | -0.40095 | 2872 ft | 206 kts | 220° |
| 2026-05-06 10:32 | 51.41326 | -0.41569 | 3127 ft | 217 kts | 221° |
| 2026-05-06 10:32 | 51.40112 | -0.43150 | 3255 ft | 233 kts | 220° |
| 2026-05-06 10:32 | 51.38824 | -0.44836 | 3366 ft | 251 kts | 220° |
| 2026-05-06 10:33 | 51.37511 | -0.46775 | 3481 ft | 263 kts | 237° |
| 2026-05-06 10:33 | 51.36807 | -0.49452 | 3802 ft | 263 kts | 266° |
| 2026-05-06 10:33 | 51.36943 | -0.52332 | 4280 ft | 257 kts | 293° |
| 2026-05-06 10:33 | 51.37636 | -0.54939 | 4759 ft | 255 kts | 298° |
| 2026-05-06 10:34 | 51.38366 | -0.57535 | 5351 ft | 255 kts | 298° |
| 2026-05-06 10:34 | 51.39092 | -0.60120 | 5952 ft | 255 kts | 297° |
| 2026-05-06 10:34 | 51.39821 | -0.62715 | 6494 ft | 256 kts | 297° |
| 2026-05-06 10:34 | 51.40544 | -0.65289 | 6963 ft | 258 kts | 297° |
| 2026-05-06 10:35 | 51.41285 | -0.67938 | 7409 ft | 262 kts | 296° |
| 2026-05-06 10:35 | 51.42034 | -0.70627 | 7864 ft | 266 kts | 296° |
| 2026-05-06 10:35 | 51.42789 | -0.73346 | 8326 ft | 269 kts | 296° |
| 2026-05-06 10:35 | 51.43554 | -0.76107 | 8769 ft | 273 kts | 295° |
| 2026-05-06 10:36 | 51.44327 | -0.78908 | 9218 ft | 276 kts | 295° |
| 2026-05-06 10:36 | 51.45110 | -0.81750 | 9673 ft | 279 kts | 295° |
| 2026-05-06 10:36 | 51.45897 | -0.84610 | 10098 ft | 282 kts | 295° |
| 2026-05-06 10:36 | 51.46708 | -0.87556 | 10257 ft | 297 kts | 295° |
| 2026-05-06 10:37 | 51.47564 | -0.90673 | 10409 ft | 313 kts | 295° |
| 2026-05-06 10:37 | 51.48465 | -0.93961 | 10554 ft | 331 kts | 295° |
| 2026-05-06 10:37 | 51.49402 | -0.97388 | 10794 ft | 345 kts | 295° |
| 2026-05-06 10:37 | 51.50380 | -1.00969 | 11235 ft | 355 kts | 295° |
| 2026-05-06 10:38 | 51.51381 | -1.04643 | 11779 ft | 362 kts | 294° |
| 2026-05-06 10:38 | 51.52387 | -1.08344 | 12704 ft | 360 kts | 295° |
| 2026-05-06 10:38 | 51.53394 | -1.12054 | 13447 ft | 365 kts | 294° |
| 2026-05-06 10:38 | 51.54073 | -1.14557 | 13835 ft | 372 kts | 294° |
| 2026-05-06 10:39 | 51.55455 | -1.19658 | 14705 ft | 377 kts | 294° |
| 2026-05-06 10:39 | 51.56493 | -1.23496 | 15697 ft | 372 kts | 294° |
| 2026-05-06 10:39 | 51.57530 | -1.27340 | 16327 ft | 378 kts | 293° |
| 2026-05-06 10:39 | 51.58583 | -1.31244 | 16996 ft | 383 kts | 293° |
| 2026-05-06 10:40 | 51.59285 | -1.33853 | 17433 ft | 386 kts | 293° |
| 2026-05-06 10:40 | 51.60355 | -1.37835 | 18167 ft | 389 kts | 293° |
| 2026-05-06 10:40 | 51.61518 | -1.41789 | 18794 ft | 394 kts | 297° |
| 2026-05-06 10:40 | 51.62827 | -1.45707 | 19303 ft | 400 kts | 298° |
| 2026-05-06 10:41 | 51.64157 | -1.49675 | 19946 ft | 403 kts | 297° |
| 2026-05-06 10:41 | 51.65488 | -1.53670 | 20577 ft | 406 kts | 297° |
| 2026-05-06 10:41 | 51.66821 | -1.57698 | 21243 ft | 408 kts | 297° |
| 2026-05-06 10:41 | 51.68162 | -1.61774 | 21875 ft | 412 kts | 297° |
| 2026-05-06 10:42 | 51.69384 | -1.65911 | 22431 ft | 415 kts | 290° |
| 2026-05-06 10:42 | 51.70290 | -1.70357 | 22963 ft | 419 kts | 284° |
| 2026-05-06 10:42 | 51.70917 | -1.74975 | 23475 ft | 423 kts | 278° |
| 2026-05-06 10:42 | 51.71252 | -1.79716 | 23955 ft | 425 kts | 276° |
| 2026-05-06 10:43 | 51.71572 | -1.84481 | 24440 ft | 428 kts | 277° |
| 2026-05-06 10:43 | 51.72124 | -1.89203 | 24911 ft | 430 kts | 283° |
| 2026-05-06 10:43 | 51.72848 | -1.93902 | 25312 ft | 433 kts | 283° |
| 2026-05-06 10:44 | 51.74299 | -2.03357 | 26109 ft | 439 kts | 283° |
| 2026-05-06 10:44 | 51.75022 | -2.08170 | 26520 ft | 441 kts | 283° |
| 2026-05-06 10:44 | 51.75743 | -2.13015 | 26912 ft | 444 kts | 283° |
| 2026-05-06 10:44 | 51.76461 | -2.17879 | 27277 ft | 447 kts | 283° |
| 2026-05-06 10:45 | 51.77181 | -2.22779 | 27644 ft | 449 kts | 283° |
| 2026-05-06 10:45 | 51.77903 | -2.27715 | 27993 ft | 452 kts | 283° |
| 2026-05-06 10:45 | 51.78615 | -2.32597 | 28333 ft | 454 kts | 283° |
| 2026-05-06 10:45 | 51.79340 | -2.37579 | 28720 ft | 455 kts | 283° |
| 2026-05-06 10:46 | 51.80063 | -2.42562 | 29054 ft | 457 kts | 283° |
| 2026-05-06 10:46 | 51.80789 | -2.47575 | 29363 ft | 458 kts | 283° |
| 2026-05-06 10:46 | 51.81514 | -2.52598 | 29660 ft | 460 kts | 283° |
| 2026-05-06 10:46 | 51.82233 | -2.57656 | 29907 ft | 462 kts | 282° |
| 2026-05-06 10:47 | 51.82930 | -2.62736 | 30125 ft | 464 kts | 282° |
| 2026-05-06 10:47 | 51.83616 | -2.67851 | 30326 ft | 466 kts | 282° |
| 2026-05-06 10:47 | 51.84290 | -2.72908 | 30574 ft | 465 kts | 282° |
| 2026-05-06 10:47 | 51.84971 | -2.78022 | 30893 ft | 464 kts | 282° |
| 2026-05-06 10:48 | 51.85649 | -2.83118 | 31226 ft | 462 kts | 282° |
| 2026-05-06 10:48 | 51.86325 | -2.88194 | 31522 ft | 461 kts | 282° |
| 2026-05-06 10:48 | 51.86998 | -2.93263 | 31795 ft | 460 kts | 282° |
| 2026-05-06 10:48 | 51.87667 | -2.98314 | 32135 ft | 458 kts | 281° |
| 2026-05-06 10:49 | 51.88331 | -3.03348 | 32441 ft | 456 kts | 281° |
| 2026-05-06 10:49 | 51.88992 | -3.08368 | 32692 ft | 456 kts | 281° |
| 2026-05-06 10:49 | 51.89650 | -3.13390 | 32941 ft | 456 kts | 281° |
| 2026-05-06 10:49 | 51.90305 | -3.18407 | 33217 ft | 455 kts | 281° |
| 2026-05-06 10:50 | 51.90956 | -3.23416 | 33468 ft | 454 kts | 281° |
| 2026-05-06 10:50 | 51.91604 | -3.28407 | 33743 ft | 453 kts | 281° |
| 2026-05-06 10:50 | 51.92250 | -3.33406 | 33955 ft | 454 kts | 281° |
| 2026-05-06 10:51 | 51.93540 | -3.43447 | 34024 ft | 454 kts | 281° |
| 2026-05-06 10:51 | 51.94806 | -3.53357 | 34025 ft | 449 kts | 281° |
| 2026-05-06 10:52 | 51.96065 | -3.63269 | 34027 ft | 449 kts | 281° |
| 2026-05-06 10:52 | 51.97322 | -3.73190 | 34021 ft | 449 kts | 281° |
| 2026-05-06 10:53 | 51.98571 | -3.83128 | 34041 ft | 450 kts | 281° |
| 2026-05-06 10:53 | 51.99815 | -3.93090 | 34034 ft | 450 kts | 280° |
| 2026-05-06 10:54 | 52.01040 | -4.02982 | 34025 ft | 449 kts | 280° |
| 2026-05-06 10:54 | 52.02265 | -4.12938 | 34023 ft | 449 kts | 280° |
| 2026-05-06 10:55 | 52.03480 | -4.22895 | 34023 ft | 448 kts | 280° |
| 2026-05-06 10:55 | 52.04681 | -4.32817 | 34024 ft | 448 kts | 280° |
| 2026-05-06 10:56 | 52.05869 | -4.42693 | 34026 ft | 448 kts | 280° |
| 2026-05-06 10:56 | 52.07056 | -4.52640 | 34024 ft | 448 kts | 280° |
| 2026-05-06 10:57 | 52.08237 | -4.62603 | 34027 ft | 448 kts | 280° |
| 2026-05-06 10:57 | 52.09408 | -4.72574 | 34029 ft | 449 kts | 280° |
| 2026-05-06 10:58 | 52.10567 | -4.82509 | 34030 ft | 449 kts | 280° |
| 2026-05-06 10:58 | 52.11724 | -4.92494 | 34045 ft | 449 kts | 280° |
| 2026-05-06 10:59 | 52.12867 | -5.02487 | 34027 ft | 449 kts | 280° |
| 2026-05-06 10:59 | 52.14407 | -5.12220 | 34031 ft | 447 kts | 297° |
| 2026-05-06 10:59 | 52.16222 | -5.16350 | 34045 ft | 451 kts | 311° |
| 2026-05-06 11:00 | 52.18604 | -5.19728 | 34037 ft | 457 kts | 324° |
| 2026-05-06 11:00 | 52.24279 | -5.24473 | 34044 ft | 460 kts | 332° |
| 2026-05-06 11:01 | 52.30060 | -5.29025 | 34044 ft | 462 kts | 331° |
| 2026-05-06 11:01 | 52.35790 | -5.33694 | 34041 ft | 463 kts | 330° |
| 2026-05-06 11:02 | 52.41553 | -5.38470 | 34047 ft | 464 kts | 330° |
| 2026-05-06 11:02 | 52.47316 | -5.43259 | 34037 ft | 463 kts | 330° |
| 2026-05-06 11:03 | 52.52977 | -5.48263 | 34027 ft | 459 kts | 322° |
| 2026-05-06 11:03 | 52.57668 | -5.55223 | 34041 ft | 453 kts | 308° |
| 2026-05-06 11:04 | 52.61326 | -5.63534 | 34048 ft | 451 kts | 303° |
| 2026-05-06 11:04 | 52.64909 | -5.72042 | 34052 ft | 452 kts | 303° |
| 2026-05-06 11:05 | 52.68519 | -5.80555 | 34045 ft | 454 kts | 303° |
| 2026-05-06 11:05 | 52.72160 | -5.89111 | 34039 ft | 455 kts | 303° |
| 2026-05-06 11:06 | 52.75779 | -5.97625 | 34038 ft | 456 kts | 303° |
| 2026-05-06 11:06 | 52.79416 | -6.06215 | 34032 ft | 456 kts | 303° |
| 2026-05-06 11:07 | 52.83039 | -6.14801 | 34032 ft | 455 kts | 303° |
| 2026-05-06 11:07 | 52.86635 | -6.23355 | 34042 ft | 455 kts | 304° |
| 2026-05-06 11:08 | 52.90251 | -6.31984 | 34032 ft | 456 kts | 304° |
| 2026-05-06 11:08 | 52.93860 | -6.40626 | 34037 ft | 456 kts | 304° |
| 2026-05-06 11:09 | 52.97463 | -6.49283 | 34030 ft | 456 kts | 304° |
| 2026-05-06 11:09 | 53.01063 | -6.57962 | 34026 ft | 456 kts | 303° |
| 2026-05-06 11:10 | 53.04634 | -6.66602 | 34025 ft | 456 kts | 304° |
| 2026-05-06 11:10 | 53.08220 | -6.75308 | 34035 ft | 456 kts | 304° |
| 2026-05-06 11:11 | 53.11803 | -6.84030 | 34032 ft | 456 kts | 304° |
| 2026-05-06 11:11 | 53.15503 | -6.92619 | 34032 ft | 456 kts | 306° |
| 2026-05-06 11:12 | 53.19268 | -7.01133 | 34032 ft | 456 kts | 306° |
| 2026-05-06 11:12 | 53.23023 | -7.09684 | 34032 ft | 456 kts | 306° |
| 2026-05-06 11:13 | 53.26725 | -7.18194 | 34021 ft | 456 kts | 306° |
| 2026-05-06 11:13 | 53.30443 | -7.26796 | 34025 ft | 456 kts | 306° |
| 2026-05-06 11:14 | 53.34148 | -7.35397 | 34036 ft | 456 kts | 306° |
| 2026-05-06 11:14 | 53.37851 | -7.44023 | 34028 ft | 456 kts | 306° |
| 2026-05-06 11:15 | 53.41553 | -7.52671 | 34027 ft | 456 kts | 306° |
| 2026-05-06 11:15 | 53.45227 | -7.61287 | 34031 ft | 456 kts | 306° |
| 2026-05-06 11:16 | 53.48917 | -7.69967 | 34032 ft | 456 kts | 306° |
| 2026-05-06 11:16 | 53.52602 | -7.78667 | 34019 ft | 456 kts | 306° |
| 2026-05-06 11:17 | 53.56277 | -7.87374 | 34025 ft | 456 kts | 306° |
| 2026-05-06 11:17 | 53.59917 | -7.96025 | 34031 ft | 455 kts | 306° |
| 2026-05-06 11:18 | 53.63569 | -8.04736 | 34029 ft | 455 kts | 306° |
| 2026-05-06 11:18 | 53.67214 | -8.13461 | 34027 ft | 455 kts | 306° |
| 2026-05-06 11:19 | 53.70857 | -8.22212 | 34028 ft | 455 kts | 306° |
| 2026-05-06 11:19 | 53.74491 | -8.30973 | 34030 ft | 454 kts | 306° |
| 2026-05-06 11:20 | 53.78083 | -8.39661 | 34011 ft | 452 kts | 307° |
| 2026-05-06 11:20 | 53.81680 | -8.48392 | 34017 ft | 451 kts | 307° |
| 2026-05-06 11:21 | 53.85255 | -8.57097 | 34020 ft | 450 kts | 307° |
| 2026-05-06 11:21 | 53.88825 | -8.65823 | 34022 ft | 450 kts | 307° |
| 2026-05-06 11:22 | 53.92387 | -8.74559 | 34026 ft | 450 kts | 306° |
| 2026-05-06 11:22 | 53.95919 | -8.83252 | 34024 ft | 449 kts | 307° |
| 2026-05-06 11:23 | 53.99459 | -8.91994 | 34020 ft | 448 kts | 307° |
| 2026-05-06 11:23 | 54.02981 | -9.00725 | 34008 ft | 447 kts | 307° |
| 2026-05-06 11:24 | 54.06486 | -9.09441 | 34027 ft | 446 kts | 307° |
| 2026-05-06 11:24 | 54.09981 | -9.18163 | 34028 ft | 446 kts | 307° |
| 2026-05-06 11:25 | 54.13451 | -9.26853 | 34031 ft | 446 kts | 307° |
| 2026-05-06 11:25 | 54.16935 | -9.35609 | 34039 ft | 445 kts | 307° |
| 2026-05-06 11:26 | 54.20403 | -9.44357 | 34036 ft | 444 kts | 307° |
| 2026-05-06 11:26 | 54.23854 | -9.53090 | 34042 ft | 443 kts | 306° |
| 2026-05-06 11:27 | 54.27293 | -9.61824 | 34029 ft | 442 kts | 307° |
| 2026-05-06 11:27 | 54.30142 | -9.69083 | 34042 ft | 442 kts | 307° |
| 2026-05-06 11:28 | 54.33565 | -9.77832 | 34047 ft | 442 kts | 307° |
| 2026-05-06 11:28 | 54.35279 | -9.82224 | 34152 ft | 444 kts | 307° |
| 2026-05-06 11:28 | 54.36982 | -9.86599 | 34603 ft | 437 kts | 306° |
| 2026-05-06 11:28 | 54.38668 | -9.90937 | 34845 ft | 437 kts | 306° |
| 2026-05-06 11:29 | 54.40355 | -9.95282 | 34980 ft | 438 kts | 306° |
| 2026-05-06 11:29 | 54.42030 | -9.99601 | 35102 ft | 440 kts | 306° |
| 2026-05-06 11:29 | 54.43732 | -10.03997 | 35250 ft | 441 kts | 306° |
| 2026-05-06 11:29 | 54.45606 | -10.08174 | 35421 ft | 439 kts | 314° |
| 2026-05-06 11:30 | 54.47766 | -10.11799 | 35575 ft | 439 kts | 320° |
| 2026-05-06 11:30 | 54.50177 | -10.15128 | 35731 ft | 439 kts | 325° |
| 2026-05-06 11:30 | 54.52738 | -10.17866 | 35868 ft | 439 kts | 330° |
| 2026-05-06 11:31 | 54.58079 | -10.23070 | 36005 ft | 441 kts | 330° |
| 2026-05-06 11:31 | 54.63430 | -10.28284 | 36026 ft | 439 kts | 330° |
| 2026-05-06 11:32 | 54.68681 | -10.33467 | 36043 ft | 435 kts | 329° |
| 2026-05-06 11:32 | 54.73918 | -10.38682 | 36047 ft | 433 kts | 329° |
| 2026-05-06 11:33 | 54.79143 | -10.43910 | 36055 ft | 434 kts | 329° |
| 2026-05-06 11:33 | 54.84378 | -10.49163 | 36055 ft | 435 kts | 329° |
| 2026-05-06 11:34 | 54.89586 | -10.54405 | 36047 ft | 436 kts | 329° |
| 2026-05-06 11:34 | 54.94838 | -10.59706 | 36047 ft | 436 kts | 329° |
| 2026-05-06 11:35 | 55.00090 | -10.65023 | 36045 ft | 437 kts | 329° |
| 2026-05-06 11:35 | 55.05344 | -10.70358 | 36067 ft | 437 kts | 329° |
| 2026-05-06 11:36 | 55.10569 | -10.75680 | 36045 ft | 437 kts | 328° |
| 2026-05-06 11:36 | 55.15812 | -10.81037 | 36039 ft | 436 kts | 328° |
| 2026-05-06 11:37 | 55.21038 | -10.86393 | 36032 ft | 435 kts | 328° |
| 2026-05-06 11:37 | 55.26260 | -10.91762 | 36035 ft | 434 kts | 328° |
| 2026-05-06 11:38 | 55.31467 | -10.97131 | 36050 ft | 433 kts | 328° |
| 2026-05-06 11:38 | 55.36663 | -11.02504 | 36032 ft | 433 kts | 328° |
| 2026-05-06 11:39 | 55.41847 | -11.07884 | 36021 ft | 433 kts | 328° |
| 2026-05-06 11:39 | 55.47031 | -11.13279 | 36020 ft | 432 kts | 328° |
| 2026-05-06 11:40 | 55.52177 | -11.18652 | 36039 ft | 432 kts | 328° |
| 2026-05-06 11:40 | 55.57361 | -11.24080 | 36023 ft | 433 kts | 328° |
| 2026-05-06 11:41 | 55.62538 | -11.29518 | 36022 ft | 433 kts | 328° |
| 2026-05-06 11:41 | 55.67716 | -11.34974 | 36022 ft | 433 kts | 328° |
| 2026-05-06 11:42 | 55.72900 | -11.40454 | 36021 ft | 433 kts | 328° |
| 2026-05-06 11:42 | 55.78042 | -11.45906 | 36037 ft | 433 kts | 327° |
| 2026-05-06 11:43 | 55.83220 | -11.51413 | 36020 ft | 433 kts | 327° |
| 2026-05-06 11:43 | 55.88385 | -11.56924 | 36014 ft | 432 kts | 327° |
| 2026-05-06 11:44 | 55.96090 | -11.65177 | 36017 ft | 432 kts | 327° |
| 2026-05-06 11:44 | 56.01240 | -11.70716 | 36006 ft | 432 kts | 327° |
| 2026-05-06 11:45 | 56.06389 | -11.76270 | 36018 ft | 432 kts | 327° |
| 2026-05-06 11:45 | 56.11526 | -11.81830 | 36009 ft | 431 kts | 327° |
| 2026-05-06 11:46 | 56.16625 | -11.87365 | 36001 ft | 430 kts | 327° |
| 2026-05-06 11:46 | 56.21748 | -11.92945 | 36004 ft | 430 kts | 327° |
| 2026-05-06 11:47 | 56.26858 | -11.98527 | 36021 ft | 429 kts | 326° |
| 2026-05-06 11:47 | 56.31725 | -12.04699 | 35992 ft | 427 kts | 321° |
| 2026-05-06 11:48 | 56.36454 | -12.11204 | 35990 ft | 427 kts | 321° |
| 2026-05-06 11:48 | 56.41152 | -12.17666 | 35989 ft | 427 kts | 321° |
| 2026-05-06 11:49 | 56.45884 | -12.24173 | 35984 ft | 427 kts | 321° |
| 2026-05-06 11:49 | 56.50616 | -12.30690 | 36006 ft | 427 kts | 321° |
| 2026-05-06 11:50 | 56.55314 | -12.37182 | 35984 ft | 427 kts | 320° |
| 2026-05-06 11:50 | 56.60030 | -12.43720 | 35975 ft | 426 kts | 320° |
| 2026-05-06 11:51 | 56.64742 | -12.50273 | 35967 ft | 426 kts | 320° |
| 2026-05-06 11:51 | 56.69447 | -12.56839 | 35970 ft | 426 kts | 320° |
| 2026-05-06 11:52 | 56.74113 | -12.63370 | 35998 ft | 425 kts | 320° |
| 2026-05-06 11:52 | 56.78813 | -12.69971 | 35967 ft | 425 kts | 320° |
| 2026-05-06 11:53 | 56.83498 | -12.76572 | 35959 ft | 425 kts | 320° |
| 2026-05-06 11:53 | 56.88172 | -12.83179 | 35957 ft | 424 kts | 320° |
| 2026-05-06 11:54 | 56.92834 | -12.89792 | 35955 ft | 424 kts | 320° |
| 2026-05-06 11:54 | 56.97471 | -12.96388 | 35955 ft | 424 kts | 320° |
| 2026-05-06 11:55 | 57.02116 | -13.03071 | 35966 ft | 424 kts | 318° |
| 2026-05-06 11:55 | 57.06692 | -13.09917 | 35930 ft | 424 kts | 318° |
| 2026-05-06 11:56 | 57.11253 | -13.16802 | 35944 ft | 424 kts | 318° |
| 2026-05-06 11:56 | 57.15785 | -13.23645 | 35943 ft | 424 kts | 318° |
| 2026-05-06 11:57 | 57.20353 | -13.30549 | 35941 ft | 424 kts | 318° |
| 2026-05-06 11:57 | 57.24925 | -13.37474 | 35948 ft | 425 kts | 317° |
| 2026-05-06 11:58 | 57.29463 | -13.44370 | 35936 ft | 425 kts | 317° |
| 2026-05-06 11:58 | 57.34026 | -13.51328 | 35930 ft | 425 kts | 317° |
| 2026-05-06 11:59 | 57.38583 | -13.58301 | 35936 ft | 424 kts | 317° |
| 2026-05-06 11:59 | 57.43132 | -13.65283 | 35924 ft | 424 kts | 317° |
| 2026-05-06 12:00 | 57.47677 | -13.72283 | 35938 ft | 424 kts | 317° |
| 2026-05-06 12:00 | 57.52205 | -13.79281 | 35928 ft | 424 kts | 317° |
| 2026-05-06 12:01 | 57.56738 | -13.86310 | 35915 ft | 424 kts | 317° |
| 2026-05-06 12:01 | 57.61244 | -13.93319 | 35916 ft | 423 kts | 317° |
| 2026-05-06 12:02 | 57.65767 | -14.00380 | 35913 ft | 423 kts | 317° |
| 2026-05-06 12:02 | 57.70277 | -14.07443 | 35931 ft | 423 kts | 316° |
| 2026-05-06 12:03 | 57.74786 | -14.14530 | 35913 ft | 423 kts | 316° |
| 2026-05-06 12:03 | 57.79307 | -14.21660 | 35900 ft | 426 kts | 316° |
| 2026-05-06 12:04 | 57.83817 | -14.28797 | 35901 ft | 428 kts | 316° |
| 2026-05-06 12:04 | 57.88365 | -14.36016 | 35886 ft | 426 kts | 316° |
| 2026-05-06 12:05 | 57.92881 | -14.43205 | 35880 ft | 423 kts | 316° |
| 2026-05-06 12:05 | 57.97329 | -14.50316 | 35882 ft | 421 kts | 316° |
| 2026-05-06 12:06 | 58.01798 | -14.57485 | 35885 ft | 421 kts | 316° |
| 2026-05-06 12:06 | 58.06265 | -14.64675 | 35886 ft | 422 kts | 316° |
| 2026-05-06 12:07 | 58.10746 | -14.71912 | 35876 ft | 423 kts | 316° |
| 2026-05-06 12:07 | 58.15193 | -14.79118 | 35880 ft | 424 kts | 316° |
| 2026-05-06 12:08 | 58.19669 | -14.86394 | 35882 ft | 425 kts | 315° |
| 2026-05-06 12:08 | 58.24156 | -14.93715 | 35871 ft | 425 kts | 315° |
| 2026-05-06 12:09 | 58.28638 | -15.01054 | 35831 ft | 425 kts | 315° |
| 2026-05-06 12:09 | 58.33113 | -15.08405 | 35848 ft | 424 kts | 315° |
| 2026-05-06 12:10 | 58.37580 | -15.15769 | 35852 ft | 424 kts | 315° |
| 2026-05-06 12:10 | 58.42013 | -15.23104 | 35893 ft | 425 kts | 315° |
| 2026-05-06 12:11 | 58.46492 | -15.30539 | 35852 ft | 426 kts | 315° |
| 2026-05-06 12:11 | 58.50963 | -15.37988 | 35849 ft | 426 kts | 315° |
| 2026-05-06 12:12 | 58.55434 | -15.45462 | 35825 ft | 426 kts | 315° |
| 2026-05-06 12:12 | 58.59868 | -15.52901 | 35818 ft | 426 kts | 315° |
| 2026-05-06 12:13 | 58.64327 | -15.60408 | 35814 ft | 426 kts | 315° |
| 2026-05-06 12:13 | 58.68796 | -15.67959 | 35823 ft | 427 kts | 314° |
| 2026-05-06 12:14 | 58.73259 | -15.75526 | 35817 ft | 428 kts | 314° |
| 2026-05-06 12:14 | 58.77693 | -15.83072 | 35803 ft | 428 kts | 314° |
| 2026-05-06 12:15 | 58.82152 | -15.90687 | 35800 ft | 428 kts | 314° |
| 2026-05-06 12:15 | 58.86602 | -15.98314 | 35797 ft | 428 kts | 314° |
| 2026-05-06 12:16 | 58.91049 | -16.05962 | 35801 ft | 428 kts | 314° |
| 2026-05-06 12:16 | 58.95501 | -16.13648 | 35793 ft | 428 kts | 314° |
| 2026-05-06 12:17 | 58.99203 | -16.20061 | 35791 ft | 429 kts | 314° |
| 2026-05-06 12:17 | 59.04368 | -16.29040 | 35781 ft | 429 kts | 314° |
| 2026-05-06 12:18 | 59.08087 | -16.35526 | 35781 ft | 429 kts | 314° |
| 2026-05-06 12:18 | 59.12528 | -16.43300 | 35782 ft | 429 kts | 313° |
| 2026-05-06 12:19 | 59.16946 | -16.51060 | 35784 ft | 431 kts | 313° |
| 2026-05-06 12:19 | 59.21411 | -16.58931 | 35784 ft | 433 kts | 313° |
| 2026-05-06 12:20 | 59.25890 | -16.66857 | 35776 ft | 435 kts | 313° |
| 2026-05-06 12:20 | 59.30380 | -16.74834 | 35760 ft | 437 kts | 313° |
| 2026-05-06 12:21 | 59.34876 | -16.82846 | 35770 ft | 435 kts | 313° |
| 2026-05-06 12:21 | 59.39350 | -16.90852 | 35771 ft | 435 kts | 313° |
| 2026-05-06 12:22 | 59.43824 | -16.98889 | 35766 ft | 436 kts | 313° |
| 2026-05-06 12:22 | 59.48279 | -17.06923 | 35762 ft | 438 kts | 313° |
| 2026-05-06 12:23 | 59.52768 | -17.15045 | 35744 ft | 438 kts | 313° |
| 2026-05-06 12:23 | 59.57254 | -17.23195 | 35748 ft | 438 kts | 313° |
| 2026-05-06 12:24 | 59.61737 | -17.31369 | 35793 ft | 439 kts | 313° |
| 2026-05-06 12:24 | 59.66207 | -17.39554 | 35764 ft | 441 kts | 313° |
| 2026-05-06 12:25 | 59.70722 | -17.47852 | 35757 ft | 443 kts | 313° |
| 2026-05-06 12:25 | 59.75249 | -17.56201 | 35754 ft | 445 kts | 313° |
| 2026-05-06 12:26 | 59.79777 | -17.64586 | 35750 ft | 446 kts | 313° |
| 2026-05-06 12:26 | 59.84315 | -17.73020 | 35751 ft | 446 kts | 313° |
| 2026-05-06 12:27 | 59.88830 | -17.81449 | 35756 ft | 448 kts | 313° |
| 2026-05-06 12:27 | 59.93386 | -17.89986 | 35757 ft | 449 kts | 313° |
| 2026-05-06 12:28 | 59.97942 | -17.98555 | 35750 ft | 450 kts | 313° |
| 2026-05-06 12:28 | 60.02473 | -18.07111 | 35748 ft | 450 kts | 313° |
| 2026-05-06 12:29 | 60.07032 | -18.15756 | 35747 ft | 450 kts | 313° |
| 2026-05-06 12:29 | 60.11580 | -18.24412 | 35761 ft | 450 kts | 313° |
| 2026-05-06 12:30 | 60.16082 | -18.33017 | 35748 ft | 448 kts | 313° |
| 2026-05-06 12:30 | 60.20600 | -18.41688 | 35766 ft | 449 kts | 313° |
| 2026-05-06 12:31 | 60.25126 | -18.50409 | 35751 ft | 450 kts | 313° |
| 2026-05-06 12:31 | 60.29651 | -18.59163 | 35768 ft | 451 kts | 313° |
| 2026-05-06 12:32 | 60.34149 | -18.67900 | 35765 ft | 452 kts | 313° |
| 2026-05-06 12:32 | 60.38671 | -18.76718 | 35779 ft | 452 kts | 313° |
| 2026-05-06 12:33 | 60.43191 | -18.85569 | 35790 ft | 452 kts | 313° |
| 2026-05-06 12:33 | 60.47718 | -18.94471 | 35773 ft | 453 kts | 313° |
| 2026-05-06 12:34 | 60.52235 | -19.03387 | 35762 ft | 453 kts | 313° |
| 2026-05-06 12:34 | 60.56744 | -19.12324 | 35808 ft | 452 kts | 313° |